Time;durP1;ratioP1;P1;durP2;ratioP2;P2;SDS_P1;SDS_P2;PMS_P1;PMS_P2;Temp;Humidity;BMP_temperature;BMP_pressure;BME280_temperature;BME280_humidity;BME280_pressure;Samples;Min_cycle;Max_cycle;Signal;HPM_P1;HPM_P2
2023/09/20 00:01:47;;;;;;;3.40;0.80;;;19.80;99.90;;;;;;4954437;29;20771;-75
2023/09/20 00:04:13;;;;;;;3.53;0.90;;;19.80;99.90;;;;;;4955219;29;21199;-75
2023/09/20 00:06:39;;;;;;;4.70;1.30;;;19.70;99.90;;;;;;4955848;29;20656;-75
2023/09/20 00:09:05;;;;;;;1.93;1.23;;;19.70;99.90;;;;;;4938397;29;20177;-75
2023/09/20 00:11:30;;;;;;;2.37;0.90;;;19.70;99.90;;;;;;4938771;29;20688;-75
2023/09/20 00:13:58;;;;;;;2.60;1.00;;;19.70;99.90;;;;;;4938300;29;20592;-75
2023/09/20 00:16:24;;;;;;;2.07;0.83;;;19.60;99.90;;;;;;4955655;29;20250;-75
2023/09/20 00:18:50;;;;;;;5.20;0.93;;;19.60;99.90;;;;;;4938433;29;20596;-75
2023/09/20 00:21:16;;;;;;;1.80;0.83;;;19.60;99.90;;;;;;4938597;29;20607;-76
2023/09/20 00:23:42;;;;;;;2.30;0.93;;;19.60;99.90;;;;;;4938427;29;20636;-77
2023/09/20 00:26:08;;;;;;;2.80;0.90;;;19.60;99.90;;;;;;4938047;29;20295;-76
2023/09/20 00:28:35;;;;;;;5.77;1.20;;;19.60;99.90;;;;;;4938384;29;20595;-75
2023/09/20 00:31:03;;;;;;;2.47;0.90;;;19.60;99.90;;;;;;4954249;29;20587;-76
2023/09/20 00:33:29;;;;;;;3.77;1.13;;;19.60;99.90;;;;;;4955261;29;20584;-75
2023/09/20 00:35:55;;;;;;;3.30;0.90;;;19.60;99.90;;;;;;4954199;29;21220;-75
2023/09/20 00:38:21;;;;;;;8.93;1.27;;;19.60;99.90;;;;;;4937915;29;20601;-75
2023/09/20 00:40:47;;;;;;;3.00;1.10;;;19.50;99.90;;;;;;4934798;29;21173;-75
2023/09/20 00:43:13;;;;;;;5.70;0.80;;;19.50;99.90;;;;;;4943131;29;20204;-75
2023/09/20 00:45:40;;;;;;;3.13;1.00;;;19.50;99.90;;;;;;4937806;29;20657;-75
2023/09/20 00:48:08;;;;;;;2.23;1.00;;;19.50;99.90;;;;;;4937709;29;20585;-75
2023/09/20 00:50:35;;;;;;;3.20;1.10;;;19.50;99.90;;;;;;4937931;29;20595;-75
2023/09/20 00:53:06;;;;;;;3.67;1.00;;;19.50;99.90;;;;;;4954848;29;20616;-75
2023/09/20 00:55:34;;;;;;;3.83;0.90;;;19.50;99.90;;;;;;4937888;29;20641;-75
2023/09/20 00:58:19;;;;;;;4.00;0.83;;;19.50;99.90;;;;;;4938354;29;20588;-74
2023/09/20 01:00:46;;;;;;;2.60;0.90;;;19.40;99.90;;;;;;4937867;29;20690;-75
2023/09/20 01:03:17;;;;;;;3.20;0.80;;;19.40;99.90;;;;;;4935852;29;21237;-76
2023/09/20 01:05:47;;;;;;;2.67;0.90;;;19.40;99.90;;;;;;4952502;28;21233;-76
2023/09/20 01:08:12;;;;;;;4.20;0.90;;;19.40;99.90;;;;;;4954950;29;21362;-75
2023/09/20 01:10:38;;;;;;;4.60;1.00;;;19.50;99.90;;;;;;4937520;29;20691;-76
2023/09/20 01:13:06;;;;;;;4.53;1.00;;;19.50;99.90;;;;;;4953194;29;20660;-76
2023/09/20 01:15:34;;;;;;;1.97;0.93;;;19.50;99.90;;;;;;4937257;29;20624;-76
2023/09/20 01:18:02;;;;;;;2.50;0.77;;;19.60;99.90;;;;;;4953143;29;20608;-75
2023/09/20 01:20:30;;;;;;;2.87;0.90;;;19.50;99.90;;;;;;4937343;29;20627;-76
2023/09/20 01:22:57;;;;;;;2.63;0.90;;;19.50;99.90;;;;;;4954185;29;20713;-76
2023/09/20 01:25:24;;;;;;;4.57;1.00;;;19.50;99.90;;;;;;4952964;29;20635;-76
2023/09/20 01:27:55;;;;;;;6.90;1.37;;;19.50;99.90;;;;;;4953179;29;20584;-76
2023/09/20 01:30:25;;;;;;;2.47;0.90;;;19.50;99.90;;;;;;4953074;29;21031;-76
2023/09/20 01:32:55;;;;;;;2.97;0.80;;;19.50;99.90;;;;;;4917717;29;20676;-76
2023/09/20 01:35:22;;;;;;;1.90;0.80;;;19.50;99.90;;;;;;4935050;29;20649;-77
2023/09/20 01:37:49;;;;;;;2.37;0.70;;;19.50;99.90;;;;;;4915032;29;20687;-76
2023/09/20 01:40:15;;;;;;;1.80;0.90;;;19.50;99.90;;;;;;4953941;29;20584;-76
2023/09/20 01:42:48;;;;;;;1.90;0.90;;;19.40;99.90;;;;;;4944220;29;20725;-73
2023/09/20 01:45:15;;;;;;;2.37;0.93;;;19.40;99.90;;;;;;4920843;29;20631;-74
2023/09/20 01:47:55;;;;;;;2.60;1.23;;;19.40;99.90;;;;;;4952731;29;20677;-73
2023/09/20 01:50:23;;;;;;;2.43;1.00;;;19.40;99.90;;;;;;4934666;29;20581;-73
2023/09/20 01:53:00;;;;;;;3.40;0.90;;;19.40;99.90;;;;;;4952326;29;20602;-73
2023/09/20 01:55:28;;;;;;;1.77;0.90;;;19.30;99.90;;;;;;4936818;29;20690;-74
2023/09/20 01:57:56;;;;;;;3.47;1.03;;;19.30;99.90;;;;;;4939170;29;21288;-73
2023/09/20 02:00:29;;;;;;;2.47;1.00;;;19.30;99.90;;;;;;4920465;29;20595;-73
2023/09/20 02:02:57;;;;;;;2.47;1.00;;;19.30;99.90;;;;;;4952111;29;20675;-73
2023/09/20 02:05:24;;;;;;;2.53;0.90;;;19.30;99.90;;;;;;4951948;29;20632;-73
2023/09/20 02:07:52;;;;;;;3.00;1.00;;;19.30;99.90;;;;;;4936544;29;20592;-73
2023/09/20 02:10:21;;;;;;;3.10;1.00;;;19.30;99.90;;;;;;4952332;29;20588;-73
2023/09/20 02:12:56;;;;;;;2.20;0.90;;;19.30;99.90;;;;;;4953340;29;20981;-73
2023/09/20 02:15:26;;;;;;;3.00;0.90;;;19.30;99.90;;;;;;4937797;29;20626;-73
2023/09/20 02:17:52;;;;;;;2.30;0.90;;;19.30;99.90;;;;;;4952247;29;20588;-73
2023/09/20 02:20:20;;;;;;;1.87;0.83;;;19.30;99.90;;;;;;4941601;29;20580;-73
2023/09/20 02:22:50;;;;;;;4.83;1.20;;;19.20;99.90;;;;;;4920091;29;20984;-73
2023/09/20 02:25:20;;;;;;;4.50;1.00;;;19.20;99.90;;;;;;4936099;29;20809;-73
2023/09/20 02:27:50;;;;;;;2.10;0.83;;;19.20;99.90;;;;;;4952556;29;20577;-73
2023/09/20 02:30:24;;;;;;;4.10;1.17;;;19.10;99.90;;;;;;4935877;29;21011;-73
2023/09/20 02:32:57;;;;;;;2.73;1.10;;;19.10;99.90;;;;;;4904270;29;20589;-73
2023/09/20 02:35:28;;;;;;;1.70;0.97;;;19.10;99.90;;;;;;4935752;29;20719;-73
2023/09/20 02:37:54;;;;;;;3.10;1.00;;;19.00;99.90;;;;;;4951758;29;20585;-73
2023/09/20 02:40:24;;;;;;;4.33;1.20;;;19.00;99.90;;;;;;4951661;29;20592;-73
2023/09/20 02:42:58;;;;;;;3.03;0.93;;;18.90;99.90;;;;;;4935501;29;21396;-73
2023/09/20 02:45:25;;;;;;;3.87;1.20;;;18.90;99.90;;;;;;4935625;29;20620;-73
2023/09/20 02:47:52;;;;;;;2.00;0.90;;;18.90;99.90;;;;;;4943739;29;20584;-73
2023/09/20 02:50:22;;;;;;;4.47;0.90;;;18.80;99.90;;;;;;4951535;29;20592;-73
2023/09/20 02:52:49;;;;;;;3.77;1.53;;;18.80;99.90;;;;;;4935483;29;20591;-72
2023/09/20 02:55:17;;;;;;;2.33;1.10;;;18.70;99.90;;;;;;4951302;29;20623;-73
2023/09/20 02:57:49;;;;;;;2.40;0.80;;;18.70;99.90;;;;;;4951532;29;20584;-72
2023/09/20 03:00:21;;;;;;;5.47;1.20;;;18.70;99.90;;;;;;4927646;29;20593;-73
2023/09/20 03:02:50;;;;;;;2.60;0.90;;;18.70;99.90;;;;;;4951113;29;20638;-73
2023/09/20 03:05:18;;;;;;;3.00;1.10;;;18.60;99.90;;;;;;4938232;29;21210;-73
2023/09/20 03:07:44;;;;;;;2.60;0.90;;;18.60;99.90;;;;;;4951369;29;20588;-72
2023/09/20 03:10:15;;;;;;;3.10;0.80;;;18.60;99.90;;;;;;4952600;29;20572;-73
2023/09/20 03:12:44;;;;;;;2.10;0.90;;;18.60;99.90;;;;;;4951430;29;20975;-73
2023/09/20 03:15:22;;;;;;;4.00;0.83;;;18.60;99.90;;;;;;4935379;29;20615;-72
2023/09/20 03:17:53;;;;;;;2.00;0.90;;;18.60;99.90;;;;;;4936539;29;20595;-72
2023/09/20 03:20:32;;;;;;;3.40;1.20;;;18.60;99.90;;;;;;4930115;29;20591;-72
2023/09/20 03:23:03;;;;;;;4.33;0.90;;;18.60;99.90;;;;;;4936903;29;20788;-73
2023/09/20 03:25:36;;;;;;;2.97;0.90;;;18.60;99.90;;;;;;4950148;28;20628;-72
2023/09/20 03:28:07;;;;;;;3.17;1.20;;;18.50;99.90;;;;;;4938970;29;20584;-72
2023/09/20 03:30:33;;;;;;;5.67;1.00;;;18.50;99.90;;;;;;4930313;29;20603;-72
2023/09/20 03:32:59;;;;;;;3.03;0.90;;;18.50;99.90;;;;;;4954947;29;20596;-72
2023/09/20 03:35:26;;;;;;;4.00;1.03;;;18.50;99.90;;;;;;4939083;29;20727;-72
2023/09/20 03:37:52;;;;;;;2.73;0.90;;;18.50;99.90;;;;;;4929816;29;20683;-72
2023/09/20 03:40:19;;;;;;;2.70;1.00;;;18.50;99.90;;;;;;4954785;29;20993;-72
2023/09/20 03:42:47;;;;;;;1.90;0.90;;;18.50;99.90;;;;;;4922989;29;20644;-73
2023/09/20 03:45:14;;;;;;;2.20;0.80;;;18.40;99.90;;;;;;4954803;29;21338;-73
2023/09/20 03:47:41;;;;;;;4.43;1.27;;;18.40;99.90;;;;;;4923267;29;20679;-72
2023/09/20 03:50:09;;;;;;;5.03;1.10;;;18.40;99.90;;;;;;4954886;29;20992;-73
2023/09/20 03:52:37;;;;;;;1.70;0.80;;;18.40;99.90;;;;;;4938649;29;20652;-73
2023/09/20 03:55:03;;;;;;;2.37;0.80;;;18.40;99.90;;;;;;4935632;29;20626;-72
2023/09/20 03:57:29;;;;;;;3.70;1.40;;;18.40;99.90;;;;;;4954206;29;21059;-72
2023/09/20 03:59:58;;;;;;;3.97;0.90;;;18.50;99.90;;;;;;4954882;29;20592;-71
2023/09/20 04:02:25;;;;;;;2.53;0.90;;;18.40;99.90;;;;;;4954249;29;20707;-72
2023/09/20 04:04:52;;;;;;;3.50;1.00;;;18.40;99.90;;;;;;4922226;29;20628;-72
2023/09/20 04:07:19;;;;;;;2.53;0.80;;;18.40;99.90;;;;;;4937428;29;20648;-72
2023/09/20 04:09:45;;;;;;;2.93;1.20;;;18.40;99.90;;;;;;4934104;29;20585;-72
2023/09/20 04:12:12;;;;;;;2.13;1.00;;;18.40;99.90;;;;;;4933949;29;20593;-72
2023/09/20 04:14:38;;;;;;;2.97;1.00;;;18.40;99.90;;;;;;4952783;29;20615;-72
2023/09/20 04:17:07;;;;;;;3.50;1.13;;;18.40;99.90;;;;;;4937166;29;20592;-72
2023/09/20 04:19:33;;;;;;;4.67;1.27;;;18.40;99.90;;;;;;4953103;29;20594;-72
2023/09/20 04:22:04;;;;;;;2.70;1.00;;;18.40;99.90;;;;;;4954313;29;20631;-72
2023/09/20 04:24:31;;;;;;;3.57;0.90;;;18.40;99.90;;;;;;4952578;29;20630;-73
2023/09/20 04:26:57;;;;;;;3.93;1.20;;;18.40;99.90;;;;;;4937176;29;21013;-73
2023/09/20 04:29:24;;;;;;;1.80;0.80;;;18.40;99.90;;;;;;4952705;29;20596;-73
2023/09/20 04:31:49;;;;;;;2.57;1.43;;;18.40;99.90;;;;;;4954400;29;20646;-73
2023/09/20 04:34:18;;;;;;;3.20;1.13;;;18.40;99.90;;;;;;4952680;29;20598;-73
2023/09/20 04:36:45;;;;;;;2.47;0.97;;;18.40;99.90;;;;;;4933767;29;20641;-73
2023/09/20 04:39:12;;;;;;;2.83;1.10;;;18.40;99.90;;;;;;4933412;29;20652;-73
2023/09/20 04:41:38;;;;;;;1.90;0.90;;;18.40;99.90;;;;;;4935779;29;20696;-73
2023/09/20 04:44:05;;;;;;;3.13;1.20;;;18.40;99.90;;;;;;4952416;29;20596;-73
2023/09/20 04:46:35;;;;;;;3.70;1.10;;;18.40;99.90;;;;;;4952579;29;20607;-73
2023/09/20 04:49:05;;;;;;;3.87;0.90;;;18.40;99.90;;;;;;4936735;29;20592;-74
2023/09/20 04:51:33;;;;;;;4.17;1.33;;;18.40;99.90;;;;;;4936666;29;20599;-73
2023/09/20 04:53:59;;;;;;;2.97;1.10;;;18.40;99.90;;;;;;4920789;29;20696;-73
2023/09/20 04:56:27;;;;;;;3.43;1.00;;;18.40;99.90;;;;;;4936714;29;21202;-73
2023/09/20 04:58:53;;;;;;;4.60;0.87;;;18.50;99.90;;;;;;4952764;29;20600;-74
2023/09/20 05:01:19;;;;;;;3.13;1.07;;;18.50;99.90;;;;;;4952467;29;20624;-73
2023/09/20 05:03:50;;;;;;;4.80;1.30;;;18.50;99.90;;;;;;4920267;29;20674;-73
2023/09/20 05:06:18;;;;;;;4.85;1.10;;;18.40;99.90;;;;;;4900245;29;1087150;-73
2023/09/20 05:08:44;;;;;;;3.03;1.10;;;18.50;99.90;;;;;;4921449;29;20660;-73
2023/09/20 05:11:11;;;;;;;2.30;1.10;;;18.50;99.90;;;;;;4953378;29;20602;-73
2023/09/20 05:13:39;;;;;;;4.40;0.90;;;18.50;99.90;;;;;;4953220;29;20194;-73
2023/09/20 05:16:05;;;;;;;2.37;1.00;;;18.50;99.90;;;;;;4939495;29;20708;-73
2023/09/20 05:18:31;;;;;;;6.53;1.30;;;18.50;99.90;;;;;;4950925;29;21186;-73
2023/09/20 05:20:58;;;;;;;3.10;1.10;;;18.50;99.90;;;;;;4937161;29;20604;-73
2023/09/20 05:23:24;;;;;;;6.70;1.47;;;18.50;99.90;;;;;;4952968;29;20218;-73
2023/09/20 05:25:51;;;;;;;2.73;0.90;;;18.50;99.90;;;;;;4954294;29;21052;-73
2023/09/20 05:28:17;;;;;;;5.40;1.20;;;18.50;99.90;;;;;;4952861;28;20576;-72
2023/09/20 05:30:46;;;;;;;5.53;1.00;;;18.50;99.90;;;;;;4937381;29;20591;-74
2023/09/20 05:33:15;;;;;;;5.90;1.73;;;18.50;99.90;;;;;;4936750;29;20588;-74
2023/09/20 05:35:41;;;;;;;4.33;1.00;;;18.60;99.90;;;;;;4936625;29;20616;-74
2023/09/20 05:38:07;;;;;;;2.43;1.00;;;18.60;99.90;;;;;;4954068;29;21159;-74
2023/09/20 05:40:34;;;;;;;4.40;1.07;;;18.50;99.90;;;;;;4953931;29;20584;-74
2023/09/20 05:43:03;;;;;;;3.23;1.10;;;18.60;99.90;;;;;;4936603;29;20651;-74
2023/09/20 05:45:30;;;;;;;3.83;1.43;;;18.60;99.90;;;;;;4953833;29;21005;-74
2023/09/20 05:47:58;;;;;;;3.77;1.27;;;18.60;99.90;;;;;;4953968;29;20592;-73
2023/09/20 05:50:33;;;;;;;3.90;1.30;;;18.60;99.90;;;;;;4935932;29;20580;-74
2023/09/20 05:53:11;;;;;;;3.53;1.10;;;18.70;99.90;;;;;;4936660;29;20592;-74
2023/09/20 05:55:43;;;;;;;4.80;1.10;;;18.70;99.90;;;;;;4936508;29;20642;-74
2023/09/20 05:58:09;;;;;;;4.00;1.37;;;18.70;99.90;;;;;;4952603;29;20588;-74
2023/09/20 06:00:35;;;;;;;8.13;1.70;;;18.80;99.90;;;;;;4953588;29;20640;-74
2023/09/20 06:03:04;;;;;;;3.30;1.53;;;18.80;99.90;;;;;;4953526;29;20207;-73
2023/09/20 06:05:37;;;;;;;4.50;1.23;;;18.80;99.90;;;;;;4936180;29;20212;-75
2023/09/20 06:08:07;;;;;;;2.80;1.40;;;18.80;99.90;;;;;;4936357;29;20595;-75
2023/09/20 06:10:33;;;;;;;5.97;1.60;;;18.80;99.90;;;;;;4953364;29;20941;-75
2023/09/20 06:12:59;;;;;;;3.10;1.30;;;18.90;99.90;;;;;;4953236;29;20592;-75
2023/09/20 06:15:24;;;;;;;6.47;1.40;;;18.90;99.90;;;;;;4936146;29;20964;-75
2023/09/20 06:17:51;;;;;;;3.63;1.03;;;18.90;99.90;;;;;;4952003;29;20208;-75
2023/09/20 06:20:21;;;;;;;3.20;1.20;;;18.90;99.90;;;;;;4952082;29;20188;-74
2023/09/20 06:22:51;;;;;;;2.40;0.97;;;19.00;99.90;;;;;;4935551;29;20650;-75
2023/09/20 06:25:20;;;;;;;2.63;0.90;;;19.00;99.90;;;;;;4952005;29;20632;-73
2023/09/20 06:27:50;;;;;;;5.43;1.50;;;19.00;99.90;;;;;;4952017;29;20596;-74
2023/09/20 06:30:17;;;;;;;3.50;1.40;;;19.10;99.90;;;;;;4932643;29;20652;-74
2023/09/20 06:32:44;;;;;;;3.77;1.37;;;19.10;99.90;;;;;;4934661;29;20664;-73
2023/09/20 06:35:10;;;;;;;3.80;1.37;;;19.20;99.90;;;;;;4952964;29;20623;-74
2023/09/20 06:37:38;;;;;;;4.60;1.50;;;19.20;99.90;;;;;;4953012;29;20716;-74
2023/09/20 06:40:15;;;;;;;2.30;1.10;;;19.30;99.90;;;;;;4952988;29;20580;-75
2023/09/20 06:42:40;;;;;;;4.43;1.30;;;19.30;99.90;;;;;;4935371;29;20802;-74
2023/09/20 06:45:08;;;;;;;4.07;1.50;;;19.40;99.90;;;;;;4935501;29;20826;-75
2023/09/20 06:47:34;;;;;;;2.83;1.10;;;19.40;99.90;;;;;;4949320;29;20181;-75
2023/09/20 06:50:03;;;;;;;3.73;1.17;;;19.40;99.90;;;;;;4951427;29;20588;-75
2023/09/20 06:52:31;;;;;;;9.93;2.13;;;19.50;99.90;;;;;;4935331;29;20191;-75
2023/09/20 06:54:57;;;;;;;2.63;1.00;;;19.50;99.90;;;;;;4951484;29;20620;-75
2023/09/20 06:57:23;;;;;;;2.90;1.00;;;19.60;99.90;;;;;;4951543;29;20639;-75
2023/09/20 06:59:52;;;;;;;3.27;1.07;;;19.60;99.90;;;;;;4952733;29;20187;-76
2023/09/20 07:02:19;;;;;;;2.40;1.10;;;19.70;99.90;;;;;;4951395;29;20207;-77
2023/09/20 07:04:47;;;;;;;3.80;1.20;;;19.70;99.90;;;;;;4935273;29;21259;-77
2023/09/20 07:07:13;;;;;;;3.17;0.90;;;19.90;99.90;;;;;;4952788;29;20615;-76
2023/09/20 07:09:39;;;;;;;5.00;1.17;;;19.90;99.90;;;;;;4952512;29;20623;-76
2023/09/20 07:12:07;;;;;;;3.00;0.90;;;19.90;99.90;;;;;;4932329;29;20616;-77
2023/09/20 07:14:37;;;;;;;2.90;0.93;;;20.00;99.90;;;;;;4932434;29;20215;-76
2023/09/20 07:17:07;;;;;;;3.80;1.80;;;20.10;99.90;;;;;;4935923;29;20642;-76
2023/09/20 07:19:36;;;;;;;2.57;0.90;;;20.10;99.90;;;;;;4952183;29;20596;-75
2023/09/20 07:22:03;;;;;;;1.80;0.90;;;20.10;99.90;;;;;;4946940;29;20680;-75
2023/09/20 07:24:32;;;;;;;2.87;1.17;;;20.20;99.90;;;;;;4924054;29;20632;-75
2023/09/20 07:26:58;;;;;;;2.77;1.77;;;20.30;99.90;;;;;;4952359;29;20584;-75
2023/09/20 07:29:24;;;;;;;4.30;0.80;;;20.30;99.90;;;;;;4952270;29;21199;-75
2023/09/20 07:31:50;;;;;;;2.10;0.90;;;20.40;99.90;;;;;;4951126;29;20601;-75
2023/09/20 07:34:19;;;;;;;3.37;1.00;;;20.50;99.90;;;;;;4951896;29;20675;-75
2023/09/20 07:36:49;;;;;;;3.30;1.07;;;20.60;99.90;;;;;;4952293;29;20184;-75
2023/09/20 07:39:18;;;;;;;3.30;2.13;;;20.70;99.90;;;;;;4952415;29;20675;-75
2023/09/20 07:41:50;;;;;;;2.87;1.10;;;20.80;99.90;;;;;;4935263;29;20645;-75
2023/09/20 07:44:17;;;;;;;2.90;1.00;;;20.80;99.90;;;;;;4934749;29;20615;-74
2023/09/20 07:46:43;;;;;;;2.97;1.10;;;20.80;99.90;;;;;;4952273;29;20627;-75
2023/09/20 07:49:09;;;;;;;3.93;0.80;;;20.80;99.90;;;;;;4935154;29;20644;-75
2023/09/20 07:51:36;;;;;;;1.63;0.80;;;20.80;99.90;;;;;;4952353;29;20950;-76
2023/09/20 07:54:06;;;;;;;2.57;1.17;;;20.90;99.90;;;;;;4951828;29;20959;-76
2023/09/20 07:56:34;;;;;;;2.07;0.90;;;21.00;99.90;;;;;;4934980;29;20631;-76
2023/09/20 07:59:00;;;;;;;2.03;0.83;;;21.00;99.90;;;;;;4950920;29;20592;-76
2023/09/20 08:01:29;;;;;;;2.10;0.83;;;21.00;99.90;;;;;;4952071;29;20596;-76
2023/09/20 08:03:58;;;;;;;2.57;1.03;;;21.00;99.90;;;;;;4951857;29;20679;-76
2023/09/20 08:06:29;;;;;;;3.00;1.63;;;21.10;99.90;;;;;;4950938;29;20624;-76
2023/09/20 08:08:56;;;;;;;2.70;0.87;;;21.00;99.90;;;;;;4952192;29;21067;-77
2023/09/20 08:11:22;;;;;;;3.27;0.83;;;21.10;99.90;;;;;;4952173;29;20616;-77
2023/09/20 08:13:56;;;;;;;2.03;1.00;;;21.10;99.90;;;;;;4946743;28;20584;-75
2023/09/20 08:16:23;;;;;;;3.23;1.10;;;21.20;99.90;;;;;;4955725;29;20619;-76
2023/09/20 08:21:34;;;;;;;3.93;1.10;;;21.40;99.90;;;;;;4955372;29;20675;-75
2023/09/20 09:00:24;;;;;;;2.43;0.83;;;22.70;99.90;;;;;;4953621;29;20580;-76
2023/09/20 09:02:58;;;;;;;1.97;0.83;;;22.80;99.90;;;;;;4953229;29;20643;-76
2023/09/20 09:05:27;;;;;;;2.07;0.70;;;23.00;99.90;;;;;;4953283;29;20631;-76
2023/09/20 09:07:53;;;;;;;2.57;0.90;;;23.20;99.90;;;;;;4953469;29;20588;-76
2023/09/20 09:10:20;;;;;;;2.47;0.80;;;23.30;99.90;;;;;;4954628;29;20592;-76
2023/09/20 09:12:46;;;;;;;2.27;0.80;;;23.40;99.90;;;;;;4954460;29;20587;-76
2023/09/20 09:15:12;;;;;;;2.03;0.70;;;23.50;99.90;;;;;;4953400;29;20627;-76
2023/09/20 09:17:43;;;;;;;2.77;1.17;;;23.60;99.90;;;;;;4954561;29;20691;-76
2023/09/20 09:20:13;;;;;;;2.53;1.00;;;23.60;99.90;;;;;;4954325;29;20595;-76
2023/09/20 09:22:39;;;;;;;2.73;1.20;;;23.90;99.90;;;;;;4952820;29;20635;-76
2023/09/20 09:25:14;;;;;;;1.67;0.80;;;24.40;99.90;;;;;;4951798;28;20612;-76
2023/09/20 09:27:41;;;;;;;2.10;0.83;;;24.70;99.90;;;;;;4953033;29;20591;-76
2023/09/20 09:30:14;;;;;;;1.80;0.77;;;25.10;99.90;;;;;;4954253;29;21138;-76
2023/09/20 09:32:41;;;;;;;2.33;0.80;;;25.40;99.90;;;;;;4954209;29;20719;-76
2023/09/20 09:35:08;;;;;;;2.83;0.80;;;25.90;99.90;;;;;;4954388;29;20967;-76
2023/09/20 09:37:36;;;;;;;3.60;0.70;;;26.40;99.90;;;;;;4952918;29;21171;-76
2023/09/20 09:40:06;;;;;;;2.00;0.70;;;27.10;99.90;;;;;;4952674;29;20620;-76
2023/09/20 09:42:32;;;;;;;2.97;1.00;;;27.70;99.90;;;;;;4952653;29;20668;-76
2023/09/20 09:45:01;;;;;;;1.90;0.73;;;28.30;99.90;;;;;;4952719;29;20612;-76
2023/09/20 09:47:30;;;;;;;1.93;0.77;;;29.10;99.90;;;;;;4953493;29;20954;-76
2023/09/20 09:49:58;;;;;;;1.97;0.60;;;29.80;99.90;;;;;;4937012;29;20638;-76
2023/09/20 09:52:24;;;;;;;5.17;0.83;;;30.50;99.90;;;;;;4936770;29;20616;-76
2023/09/20 09:54:52;;;;;;;4.57;0.70;;;31.00;99.90;;;;;;4952737;29;20971;-76
2023/09/20 09:57:18;;;;;;;1.40;0.53;;;31.60;99.90;;;;;;4936589;29;20192;-76
2023/09/20 09:59:49;;;;;;;1.53;0.63;;;32.30;99.90;;;;;;4936941;29;20623;-76
2023/09/20 10:02:22;;;;;;;1.97;0.60;;;33.00;99.90;;;;;;4943356;29;20663;-76
2023/09/20 10:04:59;;;;;;;1.70;0.60;;;33.50;99.90;;;;;;4942171;29;20992;-76
2023/09/20 10:07:31;;;;;;;2.30;0.70;;;34.00;95.80;;;;;;4953642;29;21206;-76
2023/09/20 10:10:12;;;;;;;2.03;0.50;;;34.10;94.40;;;;;;4953521;29;21131;-76
2023/09/20 10:12:39;;;;;;;1.40;0.60;;;34.00;92.60;;;;;;4953532;29;20599;-76
2023/09/20 10:15:07;;;;;;;2.57;0.60;;;33.80;91.70;;;;;;4936366;29;20790;-76
2023/09/20 10:17:54;;;;;;;1.60;0.50;;;33.70;90.00;;;;;;4936384;29;20666;-76
2023/09/20 10:20:22;;;;;;;1.60;0.60;;;33.60;90.10;;;;;;4936230;29;20607;-76
2023/09/20 10:22:49;;;;;;;2.00;0.60;;;33.80;90.80;;;;;;4953068;29;20730;-75
2023/09/20 10:25:36;;;;;;;2.90;0.70;;;34.00;90.40;;;;;;4936056;29;20628;-75
2023/09/20 10:28:16;;;;;;;1.63;0.70;;;33.90;88.40;;;;;;4953326;29;20587;-75
2023/09/20 10:31:01;;;;;;;1.87;0.60;;;33.70;83.60;;;;;;4920006;29;20616;-75
2023/09/20 10:33:55;;;;;;;2.40;0.73;;;33.30;83.10;;;;;;4945006;29;20584;-75
2023/09/20 10:36:31;;;;;;;2.20;0.70;;;33.00;82.10;;;;;;4935448;29;20633;-75
2023/09/20 10:39:18;;;;;;;1.43;0.60;;;32.70;81.10;;;;;;4935808;29;20600;-74
2023/09/20 10:41:46;;;;;;;1.40;0.40;;;32.60;83.10;;;;;;4953052;29;20635;-75
2023/09/20 10:44:36;;;;;;;3.33;0.60;;;32.70;83.30;;;;;;4952672;29;20692;-75
2023/09/20 10:47:12;;;;;;;4.57;0.60;;;32.60;81.80;;;;;;4951593;29;20590;-74
2023/09/20 10:49:41;;;;;;;2.00;0.60;;;32.60;80.10;;;;;;4935304;29;21212;-75
2023/09/20 10:52:10;;;;;;;1.50;0.60;;;32.30;78.30;;;;;;4926261;29;20591;-75
2023/09/20 10:54:38;;;;;;;1.50;0.70;;;32.10;77.60;;;;;;4952507;29;20991;-75
2023/09/20 10:57:09;;;;;;;1.50;0.50;;;31.80;76.80;;;;;;4935319;29;20600;-75
2023/09/20 10:59:37;;;;;;;1.60;0.60;;;31.50;75.40;;;;;;4935599;29;20589;-75
2023/09/20 11:02:17;;;;;;;1.77;0.60;;;31.20;74.70;;;;;;4951430;29;20697;-74
2023/09/20 11:04:46;;;;;;;1.80;0.50;;;30.80;74.40;;;;;;4951384;29;20800;-74
2023/09/20 11:07:12;;;;;;;2.27;0.80;;;30.50;74.50;;;;;;4935616;29;20587;-75
2023/09/20 11:09:38;;;;;;;2.27;0.60;;;30.30;75.70;;;;;;4935476;29;20580;-75
2023/09/20 11:12:08;;;;;;;1.73;0.60;;;30.10;76.20;;;;;;4935204;29;20632;-74
2023/09/20 11:14:41;;;;;;;2.57;0.60;;;30.00;76.40;;;;;;4935063;29;20615;-74
2023/09/20 11:17:08;;;;;;;3.40;0.60;;;30.00;77.10;;;;;;4927598;29;20946;-75
2023/09/20 11:19:35;;;;;;;3.57;0.60;;;30.00;78.50;;;;;;4952586;29;20594;-74
2023/09/20 11:22:02;;;;;;;1.70;0.60;;;30.00;79.20;;;;;;4952589;29;20997;-74
2023/09/20 11:24:29;;;;;;;1.60;0.60;;;30.10;79.00;;;;;;4952277;29;21193;-74
2023/09/20 11:26:55;;;;;;;4.23;0.70;;;30.20;79.20;;;;;;4935286;29;20598;-74
2023/09/20 11:29:21;;;;;;;1.40;0.60;;;30.30;78.90;;;;;;4952377;29;20589;-74
2023/09/20 11:31:50;;;;;;;2.33;0.90;;;30.30;79.40;;;;;;4953272;29;20639;-74
2023/09/20 11:34:19;;;;;;;1.90;0.70;;;30.50;80.20;;;;;;4950834;29;20684;-74
2023/09/20 11:36:53;;;;;;;2.60;0.70;;;30.70;80.10;;;;;;4952395;29;20596;-74
2023/09/20 11:39:27;;;;;;;1.80;0.70;;;30.80;79.10;;;;;;4951037;29;20590;-74
2023/09/20 11:41:59;;;;;;;2.33;0.80;;;30.90;79.30;;;;;;4943239;29;20611;-74
2023/09/20 11:44:25;;;;;;;1.70;0.70;;;31.10;78.20;;;;;;4934897;29;20626;-75
2023/09/20 11:46:54;;;;;;;1.70;0.60;;;31.30;78.90;;;;;;4935163;29;20615;-75
2023/09/20 11:49:21;;;;;;;2.00;0.60;;;31.40;77.60;;;;;;4938950;29;20205;-74
2023/09/20 11:51:46;;;;;;;1.80;0.70;;;31.50;77.40;;;;;;4952005;29;20588;-75
2023/09/20 11:54:13;;;;;;;1.80;0.70;;;31.70;77.00;;;;;;4938522;29;21188;-74
2023/09/20 11:56:39;;;;;;;2.77;0.63;;;31.80;76.00;;;;;;4960435;29;20210;-74
2023/09/20 11:59:09;;;;;;;2.90;1.00;;;31.80;75.50;;;;;;4939546;29;20612;-77
2023/09/20 12:01:40;;;;;;;1.97;0.80;;;31.90;74.50;;;;;;4957531;29;20727;-75
2023/09/20 12:04:09;;;;;;;2.00;0.63;;;32.00;74.20;;;;;;4947422;29;20677;-75
2023/09/20 12:06:35;;;;;;;1.83;0.60;;;32.00;73.10;;;;;;4927357;29;20631;-75
2023/09/20 12:09:05;;;;;;;2.20;0.80;;;31.90;71.70;;;;;;4955733;29;21133;-75
2023/09/20 12:11:31;;;;;;;1.80;0.73;;;31.70;71.00;;;;;;4955600;29;20598;-75
2023/09/20 12:13:57;;;;;;;2.20;0.70;;;31.50;70.50;;;;;;4955599;29;20625;-75
2023/09/20 12:16:26;;;;;;;1.70;0.70;;;31.20;69.70;;;;;;4955555;29;20644;-75
2023/09/20 12:18:54;;;;;;;2.50;0.77;;;31.00;70.10;;;;;;4954214;29;20589;-75
2023/09/20 12:21:21;;;;;;;2.77;0.50;;;30.80;69.90;;;;;;4955602;29;20592;-74
2023/09/20 12:23:47;;;;;;;2.60;0.70;;;30.50;70.00;;;;;;4922328;29;20657;-75
2023/09/20 12:26:13;;;;;;;1.90;0.80;;;30.40;70.10;;;;;;4955550;29;20709;-75
2023/09/20 12:28:39;;;;;;;3.17;0.60;;;30.20;70.30;;;;;;4947716;29;20707;-75
2023/09/20 12:31:06;;;;;;;1.70;0.70;;;30.00;70.40;;;;;;4938063;29;20627;-75
2023/09/20 12:33:32;;;;;;;3.83;0.67;;;29.90;70.60;;;;;;4953868;29;20388;-75
2023/09/20 12:36:01;;;;;;;2.33;0.80;;;29.70;70.70;;;;;;4955210;29;20772;-76
2023/09/20 12:38:30;;;;;;;4.30;0.70;;;29.60;72.00;;;;;;4955178;29;20176;-75
2023/09/20 12:40:56;;;;;;;2.17;0.80;;;29.60;72.80;;;;;;4955258;29;21178;-75
2023/09/20 12:43:22;;;;;;;2.40;0.70;;;29.60;72.30;;;;;;4954903;29;20624;-75
2023/09/20 12:45:48;;;;;;;1.57;0.77;;;29.60;72.10;;;;;;4937854;29;20612;-75
2023/09/20 12:48:14;;;;;;;1.77;0.60;;;29.60;72.20;;;;;;4937837;29;20271;-75
2023/09/20 12:50:42;;;;;;;2.13;0.90;;;29.70;72.50;;;;;;4955232;29;20675;-75
2023/09/20 12:53:09;;;;;;;1.77;0.70;;;29.70;72.50;;;;;;4953676;29;20366;-75
2023/09/20 12:55:37;;;;;;;2.37;0.70;;;29.70;72.10;;;;;;4955001;29;20624;-75
2023/09/20 12:58:07;;;;;;;2.37;0.73;;;29.70;71.30;;;;;;4954725;28;20591;-75
2023/09/20 13:00:42;;;;;;;1.90;0.80;;;29.60;70.80;;;;;;4954792;29;20589;-75
2023/09/20 13:03:08;;;;;;;2.63;0.70;;;29.50;70.70;;;;;;4954562;29;20635;-75
2023/09/20 13:05:36;;;;;;;1.90;0.70;;;29.40;70.30;;;;;;4954574;29;20634;-75
2023/09/20 13:08:02;;;;;;;1.93;0.80;;;29.30;70.10;;;;;;4954906;29;20579;-74
2023/09/20 13:10:29;;;;;;;2.80;0.93;;;29.20;69.80;;;;;;4954738;29;20587;-75
2023/09/20 13:12:55;;;;;;;1.60;0.70;;;29.00;69.50;;;;;;4954723;29;20599;-75
2023/09/20 13:15:21;;;;;;;1.90;0.73;;;28.80;69.40;;;;;;4954809;29;21002;-76
2023/09/20 13:17:55;;;;;;;3.90;1.10;;;28.70;69.10;;;;;;4937478;29;20581;-75
2023/09/20 13:20:24;;;;;;;3.60;0.97;;;28.50;69.10;;;;;;4953027;29;20212;-75
2023/09/20 13:22:52;;;;;;;2.13;0.70;;;28.30;69.20;;;;;;4954007;29;20631;-75
2023/09/20 13:25:19;;;;;;;3.43;1.30;;;28.20;69.60;;;;;;4953355;29;20644;-75
2023/09/20 13:27:46;;;;;;;1.60;0.83;;;28.00;69.80;;;;;;4937324;29;20581;-74
2023/09/20 13:30:12;;;;;;;1.80;0.80;;;27.90;70.30;;;;;;4944982;29;20588;-74
2023/09/20 13:32:39;;;;;;;1.73;0.70;;;27.80;70.60;;;;;;4952957;29;20622;-76
2023/09/20 13:35:17;;;;;;;1.70;0.80;;;27.60;70.90;;;;;;4919898;29;20711;-75